Time;durP1;ratioP1;P1;durP2;ratioP2;P2;SDS_P1;SDS_P2;PMS_P1;PMS_P2;Temp;Humidity;BMP_temperature;BMP_pressure;BME280_temperature;BME280_humidity;BME280_pressure;Samples;Min_cycle;Max_cycle;Signal;HPM_P1;HPM_P2
2023/01/29 00:02:18;;;;;;;18.63;8.07;;;;;;;4.51;73.51;100934.84;4997438;28;20034;-72
2023/01/29 00:04:44;;;;;;;19.50;8.17;;;;;;;4.52;73.71;100934.00;5008404;28;20514;-72
2023/01/29 00:07:09;;;;;;;18.63;8.38;;;;;;;4.53;73.07;100929.66;4997000;28;20037;-72
2023/01/29 00:09:35;;;;;;;17.20;7.93;;;;;;;4.52;73.69;100933.09;4995991;28;20137;-72
2023/01/29 00:12:00;;;;;;;18.17;8.50;;;;;;;4.51;73.70;100932.25;5012535;28;20105;-73
2023/01/29 00:14:26;;;;;;;17.13;8.00;;;;;;;4.52;73.49;100933.09;4997421;28;20031;-72
2023/01/29 00:16:52;;;;;;;18.90;8.83;;;;;;;4.53;73.75;100925.34;4996998;28;20042;-72
2023/01/29 00:19:18;;;;;;;17.48;8.05;;;;;;;4.53;74.04;100934.88;4996988;28;20046;-72
2023/01/29 00:21:44;;;;;;;18.45;8.52;;;;;;;4.52;73.51;100927.91;4997034;28;20065;-72
2023/01/29 00:24:10;;;;;;;18.30;8.32;;;;;;;4.51;73.75;100924.41;4996657;28;20041;-72
2023/01/29 00:26:37;;;;;;;19.23;8.57;;;;;;;4.52;73.87;100918.38;4997235;28;20068;-72
2023/01/29 00:29:03;;;;;;;18.80;8.52;;;;;;;4.52;73.83;100920.97;4996854;28;20018;-72
2023/01/29 00:31:29;;;;;;;18.48;8.70;;;;;;;4.53;73.69;100919.22;4996999;28;20035;-72
2023/01/29 00:33:55;;;;;;;19.17;8.65;;;;;;;4.53;73.69;100920.13;4995561;28;20037;-72
2023/01/29 00:36:21;;;;;;;17.70;8.13;;;;;;;4.54;73.51;100913.19;4997073;28;20038;-72
2023/01/29 00:38:53;;;;;;;19.13;8.45;;;;;;;4.53;74.13;100914.00;4996594;28;20037;-72
2023/01/29 00:46:49;;;;;;;19.73;8.18;;;;;;;4.53;73.70;100916.63;4996656;28;20036;-72
2023/01/29 00:49:15;;;;;;;17.90;8.43;;;;;;;4.50;73.80;100909.59;4996756;28;20030;-72
2023/01/29 00:51:40;;;;;;;16.88;8.02;;;;;;;4.50;73.91;100914.81;4996562;28;20026;-73
2023/01/29 00:54:06;;;;;;;18.30;8.10;;;;;;;4.51;73.70;100916.59;4995517;28;20041;-72
2023/01/29 00:56:34;;;;;;;17.83;7.80;;;;;;;4.49;73.75;100913.06;4996980;28;20033;-72
2023/01/29 00:58:59;;;;;;;16.83;7.60;;;;;;;4.48;73.88;100906.06;4999192;28;20377;-73
2023/01/29 01:04:11;;;;;;;17.47;7.60;;;;;;;4.48;74.11;100911.28;5009271;28;20060;-72
2023/01/29 01:06:41;;;;;;;17.42;7.38;;;;;;;4.47;73.93;100904.31;5001730;28;20084;-73
2023/01/29 01:11:52;;;;;;;19.10;7.70;;;;;;;4.49;73.98;100904.31;4989902;28;20081;-72
2023/01/29 01:14:18;;;;;;;19.23;8.17;;;;;;;4.47;73.79;100903.41;5000341;28;20030;-73
2023/01/29 01:16:45;;;;;;;16.98;7.65;;;;;;;4.44;73.85;100904.19;5000429;28;20033;-72
2023/01/29 01:19:12;;;;;;;19.13;8.60;;;;;;;4.42;73.84;100900.63;5000155;28;20066;-72
2023/01/29 01:21:37;;;;;;;19.05;8.07;;;;;;;4.41;73.85;100899.78;5000181;28;20035;-72
2023/01/29 01:24:04;;;;;;;19.80;8.30;;;;;;;4.40;74.00;100899.72;5000229;28;20033;-73
2023/01/29 01:26:31;;;;;;;18.88;8.65;;;;;;;4.41;73.99;100898.88;5000341;28;20030;-73
2023/01/29 01:28:57;;;;;;;17.37;7.97;;;;;;;4.41;73.65;100905.00;5015154;28;20471;-72
2023/01/29 01:31:22;;;;;;;18.27;8.18;;;;;;;4.42;73.69;100900.63;5000303;28;20045;-72
2023/01/29 01:33:48;;;;;;;16.83;8.27;;;;;;;4.42;73.65;100904.16;5000060;28;20062;-72
2023/01/29 01:36:15;;;;;;;18.87;8.57;;;;;;;4.42;74.07;100900.63;5000104;28;20041;-73
2023/01/29 01:38:43;;;;;;;17.15;7.72;;;;;;;4.42;73.78;100904.16;5000060;28;20041;-73
2023/01/29 01:41:13;;;;;;;18.30;8.18;;;;;;;4.42;73.95;100898.03;5000085;28;20113;-73
2023/01/29 01:43:47;;;;;;;20.08;8.57;;;;;;;4.42;73.21;100900.63;4998941;28;20030;-73
2023/01/29 01:46:13;;;;;;;18.88;8.13;;;;;;;4.43;74.27;100899.78;4999981;28;20038;-73
2023/01/29 01:48:39;;;;;;;18.70;8.53;;;;;;;4.42;73.69;100905.84;5000023;28;20034;-73
2023/01/29 01:51:05;;;;;;;18.52;7.93;;;;;;;4.41;73.91;100909.31;4999974;28;20054;-73
2023/01/29 01:53:38;;;;;;;18.83;7.90;;;;;;;4.40;73.79;100907.53;4999804;28;20149;-73
2023/01/29 01:56:12;;;;;;;19.23;8.52;;;;;;;4.39;73.89;100904.06;4998715;28;20037;-73
2023/01/29 01:58:41;;;;;;;16.85;7.90;;;;;;;4.38;74.07;100909.22;4999894;28;20034;-73
2023/01/29 02:01:08;;;;;;;18.17;7.68;;;;;;;4.37;73.88;100910.94;4999718;28;20074;-73
2023/01/29 02:09:37;;;;;;;17.05;7.82;;;;;;;4.34;74.28;100916.06;4998187;28;20529;-72
2023/01/29 02:12:22;;;;;;;20.10;7.72;;;;;;;4.33;73.26;100914.28;4999701;28;20471;-72
2023/01/29 02:14:47;;;;;;;22.65;9.05;;;;;;;4.35;73.72;100914.31;4999577;28;20030;-72
2023/01/29 02:17:15;;;;;;;20.97;8.70;;;;;;;4.33;73.70;100913.41;4994941;28;20031;-72
2023/01/29 02:20:05;;;;;;;16.85;7.72;;;;;;;4.30;73.33;100908.97;4998838;28;20042;-72
2023/01/29 02:23:07;;;;;;;18.38;8.23;;;;;;;4.30;73.40;100912.47;4999331;28;20101;-72
2023/01/29 02:25:53;;;;;;;16.27;7.47;;;;;;;4.33;74.02;100916.88;4999320;28;20081;-72
2023/01/29 02:28:40;;;;;;;18.33;8.43;;;;;;;4.34;74.18;100909.94;5008086;28;20492;-73
2023/01/29 02:31:25;;;;;;;18.20;7.40;;;;;;;4.34;73.92;100913.47;4999216;28;20029;-73
2023/01/29 02:34:25;;;;;;;18.83;8.27;;;;;;;4.33;73.48;100911.66;4997575;28;20037;-73
2023/01/29 02:37:08;;;;;;;18.25;8.38;;;;;;;4.36;73.45;100923.91;4998913;28;20045;-72
2023/01/29 02:39:48;;;;;;;17.20;8.05;;;;;;;4.36;73.38;100921.31;4999324;28;20025;-72
2023/01/29 02:42:26;;;;;;;20.43;8.17;;;;;;;4.34;73.17;100917.78;4999018;28;20027;-72
2023/01/29 02:45:19;;;;;;;16.33;7.30;;;;;;;4.33;73.83;100918.63;4997906;28;20041;-73
2023/01/29 02:47:58;;;;;;;18.77;7.72;;;;;;;4.33;73.54;100916.88;4988672;28;20026;-73
2023/01/29 02:50:44;;;;;;;18.05;8.32;;;;;;;4.30;73.36;100917.69;4999085;28;20041;-72
2023/01/29 02:53:15;;;;;;;21.00;8.82;;;;;;;4.32;73.59;100922.94;4998623;28;20029;-73
2023/01/29 02:55:57;;;;;;;19.30;7.93;;;;;;;4.31;73.61;100914.22;4999176;28;20023;-73
2023/01/29 02:58:28;;;;;;;24.38;9.02;;;;;;;4.29;73.59;100922.84;4998816;28;20029;-73
2023/01/29 03:01:01;;;;;;;17.35;8.00;;;;;;;4.31;73.95;100923.75;4997866;28;20152;-72
2023/01/29 03:03:55;;;;;;;17.20;8.23;;;;;;;4.30;73.35;100925.50;5001599;28;20032;-72
2023/01/29 03:06:27;;;;;;;18.83;8.05;;;;;;;4.31;74.02;100929.88;5002350;28;20184;-73
2023/01/29 03:09:01;;;;;;;17.43;7.93;;;;;;;4.30;73.83;100928.13;4996969;28;20133;-72
2023/01/29 03:11:34;;;;;;;16.98;8.05;;;;;;;4.31;73.80;100935.09;4998430;28;20053;-72
2023/01/29 03:14:23;;;;;;;17.27;7.97;;;;;;;4.30;73.47;100929.81;4998813;28;20182;-72
2023/01/29 03:16:53;;;;;;;18.85;8.55;;;;;;;4.33;74.19;100940.34;4997232;28;20030;-72
2023/01/29 03:19:26;;;;;;;18.02;7.82;;;;;;;4.35;74.01;100940.41;4996834;28;20053;-73
2023/01/29 03:21:59;;;;;;;15.83;7.60;;;;;;;4.35;73.65;100943.91;4997849;28;20411;-72
2023/01/29 03:32:51;;;;;;;18.35;7.78;;;;;;;4.36;74.27;100944.78;4998463;28;20065;-73
2023/01/29 03:35:35;;;;;;;19.43;8.30;;;;;;;4.37;73.77;100941.34;4998248;28;20680;-72
2023/01/29 03:38:03;;;;;;;20.20;8.05;;;;;;;4.37;73.93;100949.16;4998328;28;20029;-73
2023/01/29 03:40:55;;;;;;;15.50;7.65;;;;;;;4.34;73.17;100954.28;4997924;28;20100;-72
2023/01/29 03:43:36;;;;;;;18.45;7.20;;;;;;;4.34;73.34;100951.66;4998141;28;20108;-72
2023/01/29 03:46:13;;;;;;;17.65;8.35;;;;;;;4.34;73.75;100941.25;4998039;28;20027;-72
2023/01/29 03:48:58;;;;;;;17.13;7.17;;;;;;;4.33;73.38;100947.28;4998038;28;20080;-73
2023/01/29 03:51:33;;;;;;;14.40;6.95;;;;;;;4.33;73.12;100947.28;4998059;28;20395;-73
2023/01/29 03:54:09;;;;;;;14.07;6.43;;;;;;;4.33;74.07;100947.28;4998072;28;20030;-73
2023/01/29 03:56:59;;;;;;;16.65;7.13;;;;;;;4.29;73.34;100952.41;4998011;28;20082;-72
2023/01/29 03:59:38;;;;;;;16.25;7.10;;;;;;;4.30;73.25;100951.56;4996516;28;20038;-72
2023/01/29 04:02:16;;;;;;;15.83;6.77;;;;;;;4.32;73.91;100949.00;4997802;28;20018;-73
2023/01/29 04:04:44;;;;;;;15.50;6.47;;;;;;;4.34;73.93;100954.28;5008883;28;20105;-72
2023/01/29 04:07:22;;;;;;;15.52;6.50;;;;;;;4.35;73.66;100966.47;4997414;28;20030;-72
2023/01/29 04:09:57;;;;;;;15.05;6.75;;;;;;;4.34;73.82;100952.56;4994652;28;20050;-72
2023/01/29 04:12:51;;;;;;;14.93;6.80;;;;;;;4.33;72.44;100953.38;4997804;28;20022;-73
2023/01/29 04:15:18;;;;;;;15.63;6.80;;;;;;;4.34;73.91;100964.72;4997543;28;20030;-72
2023/01/29 04:17:51;;;;;;;15.40;7.30;;;;;;;4.31;73.22;100961.16;4997283;28;20114;-73
2023/01/29 04:20:18;;;;;;;16.23;6.85;;;;;;;4.33;73.75;100968.16;4997591;28;20491;-72
2023/01/29 04:22:46;;;;;;;16.92;7.22;;;;;;;4.34;73.66;100969.91;4997161;28;20034;-73
2023/01/29 04:25:15;;;;;;;17.80;7.57;;;;;;;4.36;73.95;100973.47;4997480;28;20394;-72
2023/01/29 04:27:47;;;;;;;16.23;7.10;;;;;;;4.36;73.90;100965.63;4995995;28;20026;-73
2023/01/29 04:30:26;;;;;;;19.60;7.60;;;;;;;4.37;73.63;100975.25;4997233;28;20160;-72
2023/01/29 04:33:16;;;;;;;17.88;8.27;;;;;;;4.34;73.00;100975.13;4984303;28;20022;-72
2023/01/29 04:35:58;;;;;;;15.85;6.85;;;;;;;4.34;73.59;100970.81;4997377;28;20026;-72
2023/01/29 04:38:56;;;;;;;15.95;7.30;;;;;;;4.31;73.27;100976.81;4997144;28;20065;-72
2023/01/29 04:41:47;;;;;;;17.83;7.57;;;;;;;4.35;73.79;100976.91;4997510;28;20034;-72
2023/01/29 04:44:37;;;;;;;16.90;7.25;;;;;;;4.33;73.62;100966.41;4984634;28;20570;-73
2023/01/29 04:47:25;;;;;;;19.17;7.68;;;;;;;4.32;73.23;100977.69;4997037;28;20034;-72
2023/01/29 04:50:12;;;;;;;16.65;7.70;;;;;;;4.33;73.92;100979.44;4997162;28;20030;-72
2023/01/29 04:52:48;;;;;;;16.73;7.43;;;;;;;4.37;73.93;100988.28;4997077;28;20062;-73
2023/01/29 04:55:26;;;;;;;19.03;7.53;;;;;;;4.34;73.48;100980.34;4997000;28;20022;-73
2023/01/29 04:58:02;;;;;;;17.70;7.43;;;;;;;4.33;74.04;100970.75;4997298;28;20065;-72
2023/01/29 05:00:33;;;;;;;16.58;7.53;;;;;;;4.31;73.95;100975.91;4995706;28;20114;-72
2023/01/29 05:03:00;;;;;;;16.70;7.53;;;;;;;4.32;73.73;100980.28;4997139;28;20026;-72
2023/01/29 05:05:26;;;;;;;17.50;7.72;;;;;;;4.31;74.06;100987.25;5000474;28;20057;-72
2023/01/29 05:07:54;;;;;;;18.67;7.47;;;;;;;4.31;73.79;100981.13;5011827;28;20108;-72
2023/01/29 05:10:21;;;;;;;18.10;7.82;;;;;;;4.31;74.07;100981.13;4997443;28;20105;-73
2023/01/29 05:12:53;;;;;;;17.45;7.32;;;;;;;4.29;73.88;100973.28;4997130;28;20057;-72
2023/01/29 05:15:25;;;;;;;16.42;7.53;;;;;;;4.29;73.71;100983.69;4997014;28;20105;-72
2023/01/29 05:17:52;;;;;;;17.42;7.85;;;;;;;4.29;73.98;100988.91;5000050;28;20702;-73
2023/01/29 05:20:19;;;;;;;17.80;7.93;;;;;;;4.29;74.27;100993.22;4997012;28;20030;-73
2023/01/29 05:22:47;;;;;;;17.38;7.68;;;;;;;4.28;74.09;100992.34;4996748;28;20106;-72
2023/01/29 05:25:23;;;;;;;17.65;7.70;;;;;;;4.26;73.58;100991.44;4996978;28;20034;-73
2023/01/29 05:30:37;;;;;;;18.20;7.55;;;;;;;4.28;74.40;100987.16;4992451;28;20109;-72
2023/01/29 05:33:04;;;;;;;18.60;7.63;;;;;;;4.26;74.29;100991.44;4995453;28;20026;-72
2023/01/29 05:35:30;;;;;;;19.77;8.05;;;;;;;4.28;74.50;101002.78;4997177;28;20109;-73
2023/01/29 05:37:56;;;;;;;15.70;7.90;;;;;;;4.29;74.08;101004.56;4996756;28;20058;-72
2023/01/29 05:40:22;;;;;;;19.87;7.97;;;;;;;4.28;74.15;101008.00;4996605;28;20038;-73
2023/01/29 05:42:47;;;;;;;19.08;7.65;;;;;;;4.28;74.11;101010.59;5011942;28;20045;-72
2023/01/29 05:45:13;;;;;;;18.97;7.70;;;;;;;4.28;74.12;101012.31;5000297;28;20022;-73
2023/01/29 05:47:38;;;;;;;16.98;8.15;;;;;;;4.29;73.90;101014.09;5000239;28;20105;-72
2023/01/29 05:50:05;;;;;;;19.53;7.43;;;;;;;4.28;73.68;101027.97;5000395;28;20026;-72
2023/01/29 05:52:30;;;;;;;18.85;8.10;;;;;;;4.25;74.03;101023.53;5000323;28;20072;-72
2023/01/29 05:54:56;;;;;;;17.73;7.67;;;;;;;4.25;74.36;101033.97;5000229;28;20446;-72
2023/01/29 05:57:21;;;;;;;19.23;7.10;;;;;;;4.27;74.18;101034.91;5000173;28;20072;-72
2023/01/29 05:59:46;;;;;;;21.37;8.20;;;;;;;4.28;74.42;101034.06;5000005;28;20023;-73
2023/01/29 06:02:12;;;;;;;16.50;7.23;;;;;;;4.29;74.04;101034.94;4999935;28;20392;-72
2023/01/29 06:04:37;;;;;;;17.55;7.45;;;;;;;4.31;74.06;101041.09;5011389;28;20104;-73
2023/01/29 06:07:04;;;;;;;17.70;7.57;;;;;;;4.33;73.70;101033.34;4999865;28;20114;-72
2023/01/29 06:09:29;;;;;;;15.35;7.40;;;;;;;4.34;74.25;101032.50;4999890;28;20050;-73
2023/01/29 06:11:54;;;;;;;18.20;7.90;;;;;;;4.34;74.19;101025.59;4999945;28;20018;-72
2023/01/29 06:14:20;;;;;;;20.07;8.77;;;;;;;4.33;74.16;101039.44;5000009;28;20034;-73
2023/01/29 06:16:45;;;;;;;15.90;7.50;;;;;;;4.33;74.04;101025.53;4999848;28;20164;-73
2023/01/29 06:19:11;;;;;;;20.73;8.30;;;;;;;4.33;74.35;101025.53;4999552;28;20475;-73
2023/01/29 06:21:36;;;;;;;19.35;8.60;;;;;;;4.33;74.21;101026.38;4999752;28;20442;-73
2023/01/29 06:24:01;;;;;;;18.17;7.73;;;;;;;4.34;73.89;101032.50;4999681;28;20033;-73
2023/01/29 06:26:27;;;;;;;17.70;8.07;;;;;;;4.33;73.97;101030.72;4998556;28;20037;-72
2023/01/29 06:28:52;;;;;;;20.60;7.60;;;;;;;4.32;73.98;101040.25;4999513;28;20022;-72
2023/01/29 06:31:18;;;;;;;19.00;8.18;;;;;;;4.34;73.82;101037.72;4999428;28;20046;-73
2023/01/29 06:33:43;;;;;;;19.40;8.20;;;;;;;4.33;73.84;101042.03;4998205;28;20066;-73
2023/01/29 06:36:09;;;;;;;18.70;8.53;;;;;;;4.34;74.15;101040.31;4999882;28;20030;-73
2023/01/29 06:38:34;;;;;;;21.38;8.05;;;;;;;4.33;73.99;101038.56;5014325;28;20030;-72
2023/01/29 06:41:08;;;;;;;17.40;7.60;;;;;;;4.29;73.36;101043.66;4998077;28;20022;-72
2023/01/29 06:43:33;;;;;;;18.33;7.82;;;;;;;4.30;74.15;101042.84;4997928;28;20026;-72
2023/01/29 06:45:59;;;;;;;20.87;8.50;;;;;;;4.30;74.17;101048.06;4999283;28;20023;-73
2023/01/29 06:48:24;;;;;;;17.47;7.70;;;;;;;4.31;74.09;101048.91;4999389;28;20045;-73
2023/01/29 06:50:50;;;;;;;18.67;8.30;;;;;;;4.31;73.77;101055.03;4999212;28;20148;-72
2023/01/29 06:53:17;;;;;;;18.73;8.82;;;;;;;4.31;73.92;101057.66;5013845;28;20022;-73
2023/01/29 06:55:49;;;;;;;20.60;8.50;;;;;;;4.30;73.97;101055.88;4998630;28;20030;-72
2023/01/29 06:58:15;;;;;;;18.75;8.55;;;;;;;4.30;74.15;101053.25;4998247;28;20049;-72
2023/01/29 07:00:40;;;;;;;19.37;8.30;;;;;;;4.31;73.86;101055.03;4999148;28;20575;-72
2023/01/29 07:03:05;;;;;;;18.90;8.03;;;;;;;4.30;73.98;101055.88;4998885;28;20089;-73
2023/01/29 07:05:31;;;;;;;19.37;8.53;;;;;;;4.29;74.20;101056.72;5009952;28;20081;-72
2023/01/29 07:07:57;;;;;;;20.27;8.68;;;;;;;4.27;73.97;101066.19;4998540;28;20073;-73
2023/01/29 07:10:22;;;;;;;19.30;8.67;;;;;;;4.28;74.34;101069.69;4999015;28;20034;-72
2023/01/29 07:12:48;;;;;;;19.10;8.65;;;;;;;4.27;74.68;101066.19;4998696;28;20026;-73
2023/01/29 07:15:18;;;;;;;19.93;8.63;;;;;;;4.28;74.33;101064.47;4999043;28;20030;-72
2023/01/29 07:17:43;;;;;;;20.02;9.05;;;;;;;4.28;74.21;101064.47;4998747;28;20151;-72
2023/01/29 07:20:09;;;;;;;20.87;8.90;;;;;;;4.28;74.30;101073.19;5013810;28;20447;-73
2023/01/29 07:22:35;;;;;;;23.17;8.70;;;;;;;4.28;73.94;101081.00;5011117;28;20031;-73
2023/01/29 07:25:00;;;;;;;23.20;10.07;;;;;;;4.29;74.41;101084.47;4998675;28;20541;-72
2023/01/29 07:27:26;;;;;;;22.13;9.50;;;;;;;4.29;74.31;101088.00;4998416;28;20507;-73
2023/01/29 07:29:51;;;;;;;21.73;10.10;;;;;;;4.29;74.46;101090.59;4998290;28;20080;-73
2023/01/29 07:32:17;;;;;;;24.30;10.33;;;;;;;4.30;74.30;101089.78;4998284;28;20109;-72
2023/01/29 07:34:42;;;;;;;25.57;11.33;;;;;;;4.31;74.43;101085.41;4998582;28;20026;-73
2023/01/29 07:37:08;;;;;;;26.27;10.65;;;;;;;4.33;74.50;101088.09;4997859;28;20034;-72
2023/01/29 07:39:33;;;;;;;24.60;10.13;;;;;;;4.34;74.39;101101.22;4998409;28;20058;-73
2023/01/29 07:41:58;;;;;;;23.03;10.57;;;;;;;4.35;73.86;101107.28;4998107;28;20015;-73
2023/01/29 07:44:24;;;;;;;24.93;10.10;;;;;;;4.37;74.36;101103.00;4998218;28;20026;-72
2023/01/29 07:46:49;;;;;;;22.97;9.67;;;;;;;4.38;74.15;101107.38;4996789;28;20402;-72
2023/01/29 07:49:15;;;;;;;22.80;9.82;;;;;;;4.38;73.82;101123.94;4996747;28;20117;-73
2023/01/29 07:51:41;;;;;;;22.80;10.43;;;;;;;4.40;74.08;101116.16;4997777;28;20037;-73
2023/01/29 07:54:06;;;;;;;23.98;9.57;;;;;;;4.42;73.96;101115.38;4997966;28;20101;-73
2023/01/29 07:56:31;;;;;;;22.23;9.57;;;;;;;4.43;73.96;101122.38;4998068;28;20042;-73
2023/01/29 07:58:57;;;;;;;25.53;11.40;;;;;;;4.45;73.93;101117.19;4998146;28;20030;-72
2023/01/29 08:01:22;;;;;;;19.57;8.57;;;;;;;4.46;74.06;101132.00;4997756;28;20109;-73
2023/01/29 08:03:48;;;;;;;19.43;8.93;;;;;;;4.47;74.04;101136.41;5016045;28;20022;-73
2023/01/29 08:06:13;;;;;;;22.27;8.80;;;;;;;4.47;74.42;101133.81;5001877;28;20276;-73
2023/01/29 08:08:39;;;;;;;17.97;8.67;;;;;;;4.48;74.01;101130.38;4996975;28;20050;-72
2023/01/29 08:11:04;;;;;;;19.63;8.47;;;;;;;4.50;74.26;101133.91;4997630;28;20434;-73
2023/01/29 08:13:30;;;;;;;20.75;9.60;;;;;;;4.54;74.17;101134.88;4996730;28;20137;-73
2023/01/29 08:16:03;;;;;;;18.58;8.30;;;;;;;4.57;73.90;101138.50;4997497;28;20022;-73
2023/01/29 08:18:30;;;;;;;19.10;8.57;;;;;;;4.60;73.84;101142.94;4997810;28;20058;-72
2023/01/29 08:21:02;;;;;;;19.73;9.50;;;;;;;4.62;73.52;101149.09;4997620;28;20045;-73
2023/01/29 08:23:28;;;;;;;20.27;9.27;;;;;;;4.66;74.19;101139.63;4997659;28;20030;-73
2023/01/29 08:25:54;;;;;;;18.95;8.32;;;;;;;4.69;74.03;101140.66;4996496;28;20022;-72
2023/01/29 08:28:20;;;;;;;19.10;9.33;;;;;;;4.74;74.02;101140.81;4997758;28;20037;-73
2023/01/29 08:30:45;;;;;;;21.27;9.27;;;;;;;4.77;73.79;101135.69;4997267;28;20073;-73
2023/01/29 08:33:10;;;;;;;22.03;10.33;;;;;;;4.82;74.04;101144.56;4997416;28;20026;-73
2023/01/29 08:35:36;;;;;;;23.30;9.70;;;;;;;4.89;73.74;101137.81;5012587;28;20076;-72
2023/01/29 08:38:03;;;;;;;24.52;10.50;;;;;;;4.96;73.84;101139.78;4997199;28;20022;-73
2023/01/29 08:40:33;;;;;;;23.37;9.70;;;;;;;5.01;73.32;101143.44;4997397;28;20026;-73
2023/01/29 08:43:06;;;;;;;21.33;9.68;;;;;;;5.07;73.38;101142.75;4997381;28;20660;-73
2023/01/29 08:45:33;;;;;;;23.55;9.75;;;;;;;5.13;73.90;101142.94;4997154;28;20434;-73
2023/01/29 08:47:59;;;;;;;21.75;10.75;;;;;;;5.19;73.64;101147.50;4997383;28;20086;-73
2023/01/29 08:50:24;;;;;;;22.57;10.07;;;;;;;5.25;73.47;101157.25;5000234;28;20589;-73
2023/01/29 08:52:50;;;;;;;24.23;11.10;;;;;;;5.31;73.67;101153.13;4997019;28;20364;-72
2023/01/29 08:55:15;;;;;;;20.45;9.82;;;;;;;5.35;73.01;101161.94;4997170;28;20032;-73
2023/01/29 08:57:41;;;;;;;21.77;9.73;;;;;;;5.40;72.83;101170.78;4997467;28;20049;-73
2023/01/29 09:00:10;;;;;;;19.37;9.00;;;;;;;5.45;73.29;101164.00;4995906;28;20030;-73
2023/01/29 09:02:36;;;;;;;21.35;8.55;;;;;;;5.51;73.07;101150.22;4997242;28;20064;-73
2023/01/29 09:05:02;;;;;;;19.27;8.90;;;;;;;5.59;72.64;101159.22;5008392;28;20096;-73
2023/01/29 09:07:28;;;;;;;19.80;8.90;;;;;;;5.67;73.30;101153.31;4996935;28;20066;-74
2023/01/29 09:09:54;;;;;;;17.88;8.40;;;;;;;5.75;72.36;101150.09;4995730;28;20034;-73
2023/01/29 09:12:19;;;;;;;18.63;8.57;;;;;;;5.85;72.44;101152.97;4997285;28;20030;-73
2023/01/29 09:14:45;;;;;;;19.87;9.50;;;;;;;5.95;72.35;101156.75;4997266;28;20276;-73
2023/01/29 09:17:10;;;;;;;17.97;8.40;;;;;;;6.02;72.05;101159.63;4996808;28;20030;-73
2023/01/29 09:19:35;;;;;;;20.53;9.23;;;;;;;6.11;72.67;101163.34;4999982;28;20093;-72
2023/01/29 09:22:01;;;;;;;20.60;9.47;;;;;;;6.17;72.06;101155.69;5000750;28;20030;-72
2023/01/29 09:24:26;;;;;;;19.55;8.73;;;;;;;6.27;72.01;101160.34;4997976;28;20101;-73
2023/01/29 09:26:52;;;;;;;18.80;9.00;;;;;;;6.36;71.64;101164.03;4992625;28;20065;-73
2023/01/29 09:29:17;;;;;;;18.50;8.73;;;;;;;6.42;72.09;101157.25;5020946;28;20471;-73
2023/01/29 09:31:43;;;;;;;19.98;8.50;;;;;;;6.52;71.10;101158.38;4999129;28;20026;-73
2023/01/29 09:34:08;;;;;;;18.83;9.10;;;;;;;6.69;71.71;101160.59;5001556;28;20034;-73
2023/01/29 09:36:33;;;;;;;17.40;9.10;;;;;;;6.89;71.56;101155.84;4996036;28;20034;-73
2023/01/29 09:38:59;;;;;;;20.63;9.30;;;;;;;7.09;71.08;101148.47;5011792;28;20505;-72
2023/01/29 09:41:57;;;;;;;18.77;8.33;;;;;;;7.32;68.92;101156.91;5000397;28;20423;-73
2023/01/29 09:44:47;;;;;;;15.77;7.55;;;;;;;7.60;69.17;101156.69;4989613;28;20026;-72
2023/01/29 09:47:15;;;;;;;16.33;7.80;;;;;;;7.86;69.90;101159.84;4999194;28;20038;-72
2023/01/29 09:49:46;;;;;;;16.48;7.72;;;;;;;8.09;69.36;101151.59;4999900;28;20033;-72
2023/01/29 09:52:21;;;;;;;17.38;8.35;;;;;;;8.30;66.88;101160.75;4999913;28;20033;-73
2023/01/29 09:54:52;;;;;;;17.70;8.67;;;;;;;8.48;68.63;101158.47;5000231;28;20040;-73
2023/01/29 09:57:51;;;;;;;18.63;7.82;;;;;;;8.63;66.11;101164.03;5000300;28;20057;-72
2023/01/29 10:00:24;;;;;;;16.98;8.25;;;;;;;8.85;68.12;101154.78;4998739;28;20030;-72
2023/01/29 10:03:04;;;;;;;15.18;7.15;;;;;;;8.97;67.88;101154.09;5000050;28;20026;-73
2023/01/29 10:06:01;;;;;;;15.65;8.45;;;;;;;9.09;66.46;101158.69;5010974;28;20037;-73
2023/01/29 10:08:45;;;;;;;18.30;8.60;;;;;;;9.28;65.58;101155.50;4986734;28;20057;-72
2023/01/29 10:11:28;;;;;;;15.00;7.82;;;;;;;9.47;65.83;101150.53;4997629;28;20073;-74
2023/01/29 10:14:07;;;;;;;16.25;8.60;;;;;;;9.60;64.75;101154.22;4996588;28;20034;-69
2023/01/29 10:17:05;;;;;;;18.17;8.55;;;;;;;9.68;63.18;101163.09;4999782;28;20034;-72
2023/01/29 10:19:56;;;;;;;17.40;8.27;;;;;;;9.85;63.63;101162.44;5004387;28;20055;-72
2023/01/29 10:22:27;;;;;;;15.80;7.63;;;;;;;10.02;65.50;101166.19;4995287;28;20096;-74
2023/01/29 10:25:14;;;;;;;14.82;7.60;;;;;;;10.11;64.48;101169.78;4998201;28;20034;-72
2023/01/29 10:27:46;;;;;;;15.10;7.63;;;;;;;10.21;64.97;101166.38;4985214;28;20057;-71
2023/01/29 10:30:29;;;;;;;13.20;7.05;;;;;;;10.25;63.17;101167.31;4994471;28;20498;-71
2023/01/29 10:33:00;;;;;;;14.15;6.50;;;;;;;10.38;65.35;101169.25;4999334;28;20030;-70
2023/01/29 10:35:39;;;;;;;13.50;7.03;;;;;;;10.48;60.02;101163.22;4999060;28;20108;-72
2023/01/29 10:38:43;;;;;;;15.75;7.28;;;;;;;10.72;61.99;101163.47;4998698;28;20030;-69
2023/01/29 10:41:50;;;;;;;13.52;6.45;;;;;;;10.95;61.96;101157.53;4998208;28;20088;-70
2023/01/29 10:44:24;;;;;;;13.25;6.40;;;;;;;11.68;63.64;101153.66;4988889;28;20406;-71
2023/01/29 10:47:01;;;;;;;12.23;6.85;;;;;;;14.83;59.95;101143.78;4991326;28;20168;-71
2023/01/29 10:49:45;;;;;;;11.40;6.67;;;;;;;18.43;50.53;101118.91;4992318;28;20514;-70
2023/01/29 10:52:26;;;;;;;13.15;6.70;;;;;;;21.23;48.10;101093.97;4984872;28;20040;-70
2023/01/29 10:55:10;;;;;;;10.82;6.50;;;;;;;23.49;44.40;101088.63;4994672;28;20034;-70
2023/01/29 10:57:57;;;;;;;11.35;6.50;;;;;;;25.01;41.99;101079.66;4998749;28;20023;-69
2023/01/29 11:00:34;;;;;;;12.35;7.95;;;;;;;25.91;39.04;101080.25;4999093;28;20118;-70
2023/01/29 11:03:14;;;;;;;9.83;6.67;;;;;;;26.63;38.26;101080.69;4997460;28;20390;-72
2023/01/29 11:06:18;;;;;;;10.50;6.45;;;;;;;25.10;39.81;101079.16;4994681;28;20026;-72
2023/01/29 11:08:58;;;;;;;10.48;6.60;;;;;;;23.73;41.16;101091.13;5004551;28;20071;-70
2023/01/29 11:11:35;;;;;;;10.55;6.32;;;;;;;22.39;41.67;101095.06;4997836;28;20022;-70
2023/01/29 11:14:09;;;;;;;10.95;7.07;;;;;;;21.36;44.19;101090.84;4998407;28;20049;-72
2023/01/29 11:16:45;;;;;;;10.73;6.80;;;;;;;21.18;42.99;101084.31;4998442;28;20034;-72
2023/01/29 11:19:11;;;;;;;10.57;6.70;;;;;;;21.11;45.54;101091.72;4997550;28;20022;-74
2023/01/29 11:21:51;;;;;;;9.25;6.20;;;;;;;20.83;43.27;101095.31;4998255;28;20118;-73
2023/01/29 11:24:17;;;;;;;8.93;5.32;;;;;;;19.61;47.33;101091.91;4987123;28;20034;-74
2023/01/29 11:26:46;;;;;;;9.10;5.82;;;;;;;18.31;49.97;101086.28;4998490;28;20030;-74
2023/01/29 11:29:33;;;;;;;9.37;5.43;;;;;;;17.88;47.56;101079.22;4997708;28;20506;-72
2023/01/29 11:32:02;;;;;;;9.25;5.57;;;;;;;17.36;52.00;101079.38;4997131;28;20467;-73
2023/01/29 11:34:29;;;;;;;10.50;6.25;;;;;;;17.71;51.37;101075.09;4993624;28;20031;-73
2023/01/29 11:37:03;;;;;;;10.13;5.90;;;;;;;17.44;50.91;101071.25;4996113;28;20525;-73
2023/01/29 11:39:30;;;;;;;10.15;5.72;;;;;;;16.91;51.37;101073.06;4997101;28;20118;-72
2023/01/29 11:41:57;;;;;;;11.33;6.07;;;;;;;16.36;52.65;101074.81;4997800;28;20089;-73
2023/01/29 11:44:33;;;;;;;10.85;5.95;;;;;;;15.91;52.20;101065.72;4997816;28;20049;-73
2023/01/29 11:47:10;;;;;;;10.68;6.10;;;;;;;15.53;48.46;101060.84;4997957;28;20092;-73
2023/01/29 11:49:36;;;;;;;11.63;6.35;;;;;;;15.61;54.57;101065.16;4996137;28;20042;-73
2023/01/29 11:52:06;;;;;;;10.60;5.57;;;;;;;15.18;54.68;101063.00;4997673;28;20479;-73
2023/01/29 11:54:38;;;;;;;11.50;5.80;;;;;;;14.48;55.36;101064.47;4997434;28;20030;-72
2023/01/29 11:57:05;;;;;;;9.90;5.75;;;;;;;13.95;57.73;101069.22;4997244;28;20396;-72
2023/01/29 11:59:39;;;;;;;9.43;5.45;;;;;;;13.91;54.85;101068.34;4996275;28;20069;-71
2023/01/29 12:02:34;;;;;;;9.98;5.53;;;;;;;13.88;54.54;101062.19;4997211;28;20042;-71
2023/01/29 12:05:20;;;;;;;8.95;4.43;;;;;;;13.66;55.10;101066.69;4997502;28;20030;-72
2023/01/29 12:07:50;;;;;;;8.93;4.90;;;;;;;13.27;58.04;101064.13;4987925;28;20022;-71
2023/01/29 12:10:34;;;;;;;12.38;5.35;;;;;;;12.77;56.94;101066.84;4997171;28;20037;-71
2023/01/29 12:13:08;;;;;;;10.15;5.82;;;;;;;12.43;58.07;101066.84;4997552;28;20033;-71
2023/01/29 12:15:38;;;;;;;13.20;6.20;;;;;;;12.21;60.54;101064.16;4996890;28;20026;-72